Wetterdaten: Woche 22.05.23 - 28.05.23 (KW21)
Datum Zeit Temp. Aussen Temp. o. S. Temp +5cm Feuchte Auss Luftdruck Regen Sonnenschein Regendauer Solar Windben Empfang
22.05.2023 00:00 18,6 C 17,8 C 13,9 C 93 % 1014,3 hPa 0,0 l/m 0,00 h 0,00 h 0 W/m 4,9 km/h (1 Bft) 98,82 %
22.05.2023 01:00 18,2 C 17,3 C 13,9 C 91 % 1014,2 hPa 0,0 l/m 0,00 h 0,00 h 0 W/m 1,4 km/h (1 Bft) 94,86 %
22.05.2023 02:00 18,0 C 16,9 C 13,4 C 91 % 1014,2 hPa 0,0 l/m 0,00 h 0,00 h 0 W/m 0,6 km/h (0 Bft) 99,40 %
22.05.2023 03:00 17,3 C 16,0 C 12,8 C 92 % 1014,0 hPa 0,0 l/m 0,00 h 0,00 h 0 W/m 1,4 km/h (1 Bft) 97,17 %
22.05.2023 04:00 16,8 C 15,5 C 12,2 C 93 % 1013,8 hPa 0,0 l/m 0,00 h 0,00 h 0 W/m 0,0 km/h (0 Bft) 96,22 %
22.05.2023 05:00 16,3 C 15,0 C 11,7 C 94 % 1013,7 hPa 0,0 l/m 0,00 h 0,00 h 6 W/m 0,0 km/h (0 Bft) 98,86 %
22.05.2023 06:00 15,9 C 15,0 C 11,7 C 96 % 1013,8 hPa 0,0 l/m 0,00 h 0,00 h 23 W/m 3,0 km/h (1 Bft) 97,41 %
22.05.2023 07:00 16,0 C 15,7 C 12,2 C 97 % 1014,0 hPa 0,0 l/m 0,13 h 0,00 h 82 W/m 4,4 km/h (1 Bft) 97,42 %
22.05.2023 08:00 16,5 C 16,4 C 12,8 C 97 % 1014,3 hPa 0,0 l/m 0,07 h 0,00 h 128 W/m 6,6 km/h (2 Bft) 98,58 %
22.05.2023 09:00 16,9 C 17,2 C 13,5 C 95 % 1014,8 hPa 0,0 l/m 0,00 h 0,00 h 193 W/m 8,1 km/h (2 Bft) 96,12 %
22.05.2023 10:00 17,3 C 17,5 C 13,9 C 93 % 1015,2 hPa 0,0 l/m 0,00 h 0,00 h 226 W/m 11,0 km/h (2 Bft) 97,20 %
22.05.2023 11:00 17,6 C 17,9 C 14,1 C 90 % 1015,4 hPa 0,0 l/m 0,00 h 0,00 h 249 W/m 10,6 km/h (2 Bft) 98,33 %
22.05.2023 12:00 18,4 C 20,1 C 16,3 C 89 % 1015,4 hPa 0,0 l/m 0,53 h 0,00 h 467 W/m 10,0 km/h (2 Bft) 96,83 %
22.05.2023 13:00 21,9 C 26,4 C 22,0 C 79 % 1015,1 hPa 0,0 l/m 1,00 h 0,00 h 814 W/m 11,4 km/h (2 Bft) 97,22 %
22.05.2023 14:00 23,7 C 28,0 C 19,6 C 75 % 1014,7 hPa 0,0 l/m 1,00 h 0,00 h 823 W/m 13,0 km/h (3 Bft) 98,36 %
22.05.2023 15:00 24,7 C 27,9 C 19,7 C 72 % 1014,4 hPa 0,0 l/m 1,00 h 0,00 h 731 W/m 12,0 km/h (2 Bft) 96,66 %
22.05.2023 16:00 24,9 C 26,9 C 20,0 C 72 % 1014,4 hPa 0,0 l/m 1,00 h 0,00 h 590 W/m 13,2 km/h (3 Bft) 96,94 %
22.05.2023 17:00 24,7 C 26,4 C 20,1 C 71 % 1014,0 hPa 0,0 l/m 1,00 h 0,00 h 438 W/m 15,1 km/h (3 Bft) 97,37 %
22.05.2023 18:00 24,0 C 24,3 C 19,3 C 72 % 1014,1 hPa 0,0 l/m 0,57 h 0,00 h 225 W/m 17,2 km/h (3 Bft) 98,85 %
22.05.2023 19:00 21,2 C 20,1 C 16,5 C 78 % 1014,7 hPa 0,0 l/m 0,00 h 0,00 h 55 W/m 19,1 km/h (3 Bft) 96,05 %
22.05.2023 20:00 20,4 C 19,6 C 16,1 C 85 % 1015,2 hPa 0,0 l/m 0,10 h 0,00 h 53 W/m 4,7 km/h (1 Bft) 96,44 %
22.05.2023 21:00 20,0 C 18,7 C 15,2 C 86 % 1015,9 hPa 0,0 l/m 0,03 h 0,00 h 13 W/m 7,3 km/h (2 Bft) 97,94 %
22.05.2023 22:00 18,6 C 17,4 C 14,1 C 81 % 1016,6 hPa 0,0 l/m 0,00 h 0,00 h 0 W/m 5,6 km/h (1 Bft) 96,50 %
22.05.2023 23:00 17,7 C 16,1 C 12,8 C 84 % 1017,0 hPa 0,0 l/m 0,00 h 0,00 h 0 W/m 4,7 km/h (1 Bft) 97,30 %
23.05.2023 00:00 16,4 C 15,4 C 12,1 C 86 % 1017,4 hPa 0,0 l/m 0,00 h 0,00 h 0 W/m 13,8 km/h (3 Bft) 97,30 %
23.05.2023 01:00 15,9 C 14,9 C 11,7 C 88 % 1017,7 hPa 0,0 l/m 0,00 h 0,00 h 0 W/m 13,4 km/h (3 Bft) 98,20 %
23.05.2023 02:00 15,4 C 14,6 C 11,2 C 88 % 1017,7 hPa 0,0 l/m 0,00 h 0,00 h 0 W/m 17,9 km/h (3 Bft) 96,45 %
23.05.2023 03:00 15,2 C 14,4 C 11,1 C 88 % 1018,0 hPa 0,0 l/m 0,00 h 0,00 h 0 W/m 16,1 km/h (3 Bft) 97,73 %
23.05.2023 04:00 15,1 C 14,4 C 11,1 C 88 % 1018,3 hPa 0,0 l/m 0,00 h 0,00 h 0 W/m 13,3 km/h (3 Bft) 97,41 %
23.05.2023 05:00 14,8 C 14,0 C 10,6 C 89 % 1018,6 hPa 0,0 l/m 0,00 h 0,00 h 2 W/m 19,4 km/h (3 Bft) 96,93 %
23.05.2023 06:00 14,4 C 13,9 C 10,6 C 90 % 1018,9 hPa 0,0 l/m 0,00 h 0,00 h 14 W/m 16,4 km/h (3 Bft) 96,83 %
23.05.2023 07:00 14,3 C 14,0 C 10,6 C 91 % 1019,4 hPa 0,0 l/m 0,00 h 0,00 h 41 W/m 17,5 km/h (3 Bft) 98,27 %
23.05.2023 08:00 14,4 C 14,0 C 10,6 C 91 % 1019,8 hPa 0,0 l/m 0,00 h 0,00 h 40 W/m 14,9 km/h (3 Bft) 96,87 %
23.05.2023 09:00 14,6 C 14,3 C 10,8 C 89 % 1020,3 hPa 0,0 l/m 0,00 h 0,00 h 96 W/m 17,6 km/h (3 Bft) 96,94 %
23.05.2023 10:00 14,2 C 13,6 C 10,1 C 89 % 1021,0 hPa 0,0 l/m 0,00 h 0,00 h 76 W/m 21,2 km/h (4 Bft) 98,29 %
23.05.2023 11:00 13,3 C 13,3 C 9,6 C 88 % 1021,7 hPa 0,0 l/m 0,00 h 0,00 h 151 W/m 23,2 km/h (4 Bft) 95,93 %
23.05.2023 12:00 14,9 C 16,7 C 12,6 C 79 % 1021,7 hPa 0,0 l/m 0,37 h 0,00 h 434 W/m 17,6 km/h (3 Bft) 96,32 %
23.05.2023 13:00 16,2 C 17,8 C 13,0 C 72 % 1022,0 hPa 0,0 l/m 0,30 h 0,00 h 428 W/m 19,0 km/h (3 Bft) 97,44 %
23.05.2023 14:00 17,3 C 21,2 C 13,7 C 65 % 1022,1 hPa 0,0 l/m 0,67 h 0,00 h 654 W/m 18,5 km/h (3 Bft) 98,67 %
23.05.2023 15:00 17,7 C 19,4 C 13,9 C 62 % 1022,1 hPa 0,0 l/m 0,47 h 0,00 h 440 W/m 19,0 km/h (3 Bft) 98,10 %
23.05.2023 16:00 17,9 C 20,6 C 14,0 C 59 % 1022,0 hPa 0,0 l/m 0,60 h 0,00 h 463 W/m 17,9 km/h (3 Bft) 95,71 %
23.05.2023 17:00 18,3 C 21,1 C 14,6 C 55 % 1022,0 hPa 0,0 l/m 0,77 h 0,00 h 468 W/m 19,6 km/h (3 Bft) 98,44 %
23.05.2023 18:00 17,5 C 20,9 C 14,3 C 58 % 1022,1 hPa 0,0 l/m 0,93 h 0,00 h 376 W/m 17,5 km/h (3 Bft) 97,05 %
23.05.2023 19:00 16,0 C 16,6 C 11,8 C 60 % 1022,3 hPa 0,0 l/m 0,57 h 0,00 h 164 W/m 20,0 km/h (4 Bft) 96,52 %
23.05.2023 20:00 14,6 C 14,0 C 10,5 C 63 % 1022,6 hPa 0,0 l/m 0,00 h 0,00 h 43 W/m 15,7 km/h (3 Bft) 98,15 %
23.05.2023 21:00 13,4 C 12,5 C 9,1 C 66 % 1023,1 hPa 0,0 l/m 0,00 h 0,00 h 11 W/m 10,4 km/h (2 Bft) 96,87 %
23.05.2023 22:00 12,2 C 11,3 C 7,9 C 70 % 1023,9 hPa 0,0 l/m 0,00 h 0,00 h 0 W/m 11,1 km/h (2 Bft) 96,84 %
23.05.2023 23:00 11,1 C 10,3 C 7,0 C 73 % 1024,2 hPa 0,0 l/m 0,00 h 0,00 h 0 W/m 12,4 km/h (3 Bft) 98,29 %
24.05.2023 00:00 10,2 C 9,3 C 6,1 C 76 % 1024,2 hPa 0,0 l/m 0,00 h 0,00 h 0 W/m 8,5 km/h (2 Bft) 95,96 %
24.05.2023 01:00 9,3 C 8,1 C 5,1 C 79 % 1024,3 hPa 0,0 l/m 0,00 h 0,00 h 0 W/m 4,8 km/h (1 Bft) 95,88 %
24.05.2023 02:00 8,4 C 7,3 C 4,4 C 83 % 1024,3 hPa 0,0 l/m 0,00 h 0,00 h 0 W/m 2,8 km/h (1 Bft) 95,78 %
24.05.2023 03:00 7,8 C 6,7 C 3,9 C 85 % 1024,1 hPa 0,0 l/m 0,00 h 0,00 h 0 W/m 1,1 km/h (0 Bft) 99,30 %
24.05.2023 04:00 7,1 C 5,8 C 3,2 C 88 % 1023,9 hPa 0,0 l/m 0,00 h 0,00 h 0 W/m 0,1 km/h (0 Bft) 96,58 %
24.05.2023 05:00 6,5 C 5,6 C 2,7 C 89 % 1024,0 hPa 0,0 l/m 0,00 h 0,00 h 8 W/m 1,3 km/h (1 Bft) 95,98 %
24.05.2023 06:00 6,5 C 6,1 C 3,1 C 91 % 1024,1 hPa 0,0 l/m 0,00 h 0,00 h 30 W/m 1,3 km/h (1 Bft) 94,82 %
24.05.2023 07:00 7,6 C 8,0 C 4,6 C 92 % 1024,5 hPa 0,0 l/m 0,00 h 0,00 h 73 W/m 5,2 km/h (1 Bft) 96,58 %
24.05.2023 08:00 9,5 C 11,6 C 6,6 C 89 % 1024,6 hPa 0,0 l/m 0,53 h 0,00 h 229 W/m 6,6 km/h (2 Bft) 96,86 %
24.05.2023 09:00 11,9 C 14,6 C 9,0 C 81 % 1024,8 hPa 0,0 l/m 0,60 h 0,00 h 335 W/m 11,0 km/h (2 Bft) 94,49 %
24.05.2023 10:00 12,8 C 13,8 C 9,5 C 76 % 1024,8 hPa 0,0 l/m 0,37 h 0,00 h 305 W/m 13,2 km/h (3 Bft) 98,47 %
24.05.2023 11:00 13,3 C 13,9 C 9,6 C 74 % 1024,6 hPa 0,0 l/m 0,13 h 0,00 h 246 W/m 9,9 km/h (2 Bft) 91,29 %
24.05.2023 12:00 14,6 C 16,5 C 11,8 C 69 % 1024,4 hPa 0,0 l/m 0,53 h 0,00 h 429 W/m 15,1 km/h (3 Bft) 98,30 %
24.05.2023 13:00 15,7 C 17,9 C 13,4 C 64 % 1024,1 hPa 0,0 l/m 0,67 h 0,00 h 469 W/m 16,2 km/h (3 Bft) 94,68 %
24.05.2023 14:00 15,2 C 15,6 C 11,3 C 65 % 1024,0 hPa 0,0 l/m 0,00 h 0,00 h 211 W/m 12,3 km/h (3 Bft) 93,87 %
24.05.2023 15:00 15,9 C 17,6 C 12,2 C 64 % 1023,9 hPa 0,0 l/m 0,20 h 0,00 h 365 W/m 11,8 km/h (2 Bft) 93,94 %
24.05.2023 16:00 17,2 C 19,2 C 12,9 C 61 % 1023,8 hPa 0,0 l/m 0,37 h 0,00 h 424 W/m 12,0 km/h (2 Bft) 97,94 %
24.05.2023 17:00 16,3 C 16,8 C 12,2 C 64 % 1023,7 hPa 0,0 l/m 0,00 h 0,00 h 217 W/m 8,9 km/h (2 Bft) 88,21 %
24.05.2023 18:00 16,2 C 16,6 C 12,0 C 65 % 1023,5 hPa 0,0 l/m 0,10 h 0,00 h 167 W/m 6,7 km/h (2 Bft) 44,59 %
24.05.2023 19:00 15,8 C 15,7 C 11,4 C 68 % 1023,5 hPa 0,0 l/m 0,03 h 0,00 h 74 W/m 5,8 km/h (2 Bft) 53,78 %
24.05.2023 20:00 14,9 C 13,7 C 10,2 C 73 % 1023,6 hPa 0,0 l/m 0,00 h 0,00 h 33 W/m 1,2 km/h (1 Bft) 50,25 %
24.05.2023 21:00 13,7 C 12,2 C 8,9 C 79 % 1024,0 hPa 0,0 l/m 0,00 h 0,00 h 9 W/m 0,0 km/h (0 Bft) 94,75 %
24.05.2023 22:00 12,9 C 11,7 C 8,4 C 82 % 1024,5 hPa 0,0 l/m 0,00 h 0,00 h 0 W/m 0,1 km/h (0 Bft) 96,20 %
24.05.2023 23:00 12,6 C 11,7 C 8,4 C 82 % 1024,8 hPa 0,0 l/m 0,00 h 0,00 h 0 W/m 1,5 km/h (1 Bft) 98,27 %
25.05.2023 00:00 11,8 C 10,2 C 7,2 C 83 % 1025,1 hPa 0,0 l/m 0,00 h 0,00 h 0 W/m 0,2 km/h (0 Bft) 96,90 %
25.05.2023 01:00 11,1 C 9,9 C 6,9 C 86 % 1025,2 hPa 0,0 l/m 0,00 h 0,00 h 0 W/m 0,7 km/h (0 Bft) 98,08 %
25.05.2023 02:00 10,4 C 9,0 C 6,2 C 87 % 1025,3 hPa 0,0 l/m 0,00 h 0,00 h 0 W/m 0,8 km/h (0 Bft) 95,07 %
25.05.2023 03:00 9,6 C 8,0 C 5,2 C 89 % 1025,3 hPa 0,0 l/m 0,00 h 0,00 h 0 W/m 0,0 km/h (0 Bft) 97,88 %
25.05.2023 04:00 8,9 C 7,8 C 5,0 C 91 % 1025,5 hPa 0,0 l/m 0,00 h 0,00 h 0 W/m 1,8 km/h (1 Bft) 96,62 %
25.05.2023 05:00 8,6 C 7,5 C 4,8 C 93 % 1025,7 hPa 0,0 l/m 0,00 h 0,00 h 8 W/m 1,0 km/h (0 Bft) 95,84 %
25.05.2023 06:00 8,4 C 7,8 C 4,9 C 93 % 1026,2 hPa 0,0 l/m 0,00 h 0,00 h 23 W/m 0,5 km/h (0 Bft) 96,01 %
25.05.2023 07:00 9,4 C 9,5 C 6,1 C 94 % 1026,8 hPa 0,0 l/m 0,10 h 0,00 h 70 W/m 6,0 km/h (2 Bft) 97,22 %
25.05.2023 08:00 12,2 C 16,3 C 8,7 C 87 % 1027,1 hPa 0,0 l/m 1,00 h 0,00 h 351 W/m 9,0 km/h (2 Bft) 98,74 %
25.05.2023 09:00 15,3 C 19,9 C 12,2 C 75 % 1027,5 hPa 0,0 l/m 0,83 h 0,00 h 464 W/m 9,8 km/h (2 Bft) 96,84 %
25.05.2023 10:00 16,2 C 18,8 C 13,7 C 71 % 1027,7 hPa 0,0 l/m 0,70 h 0,00 h 574 W/m 10,5 km/h (2 Bft) 99,36 %
25.05.2023 11:00 16,5 C 19,1 C 13,7 C 70 % 1027,7 hPa 0,0 l/m 0,63 h 0,00 h 622 W/m 14,8 km/h (3 Bft) 96,09 %
25.05.2023 12:00 16,6 C 18,0 C 13,4 C 70 % 1028,0 hPa 0,0 l/m 0,20 h 0,00 h 384 W/m 15,0 km/h (3 Bft) 97,21 %
25.05.2023 13:00 16,5 C 19,4 C 14,0 C 70 % 1028,0 hPa 0,0 l/m 0,50 h 0,00 h 543 W/m 15,8 km/h (3 Bft) 96,22 %
25.05.2023 14:00 17,6 C 19,4 C 13,9 C 67 % 1027,7 hPa 0,0 l/m 0,47 h 0,00 h 431 W/m 14,7 km/h (3 Bft) 98,09 %
25.05.2023 15:00 18,4 C 21,5 C 14,2 C 64 % 1027,3 hPa 0,0 l/m 0,43 h 0,00 h 497 W/m 14,5 km/h (3 Bft) 97,44 %
25.05.2023 16:00 18,8 C 20,9 C 14,6 C 63 % 1027,0 hPa 0,0 l/m 0,47 h 0,00 h 428 W/m 11,8 km/h (2 Bft) 96,71 %
25.05.2023 17:00 19,3 C 22,0 C 15,4 C 61 % 1026,8 hPa 0,0 l/m 0,67 h 0,00 h 430 W/m 14,5 km/h (3 Bft) 97,56 %
25.05.2023 18:00 19,9 C 23,7 C 16,1 C 59 % 1026,5 hPa 0,0 l/m 0,93 h 0,00 h 370 W/m 12,7 km/h (3 Bft) 99,39 %
25.05.2023 19:00 18,4 C 19,0 C 14,0 C 62 % 1026,5 hPa 0,0 l/m 0,73 h 0,00 h 178 W/m 10,9 km/h (2 Bft) 94,97 %
25.05.2023 20:00 17,4 C 16,6 C 12,8 C 64 % 1026,5 hPa 0,0 l/m 0,00 h 0,00 h 41 W/m 8,5 km/h (2 Bft) 98,90 %
25.05.2023 21:00 16,2 C 14,9 C 11,3 C 68 % 1026,8 hPa 0,0 l/m 0,00 h 0,00 h 12 W/m 3,6 km/h (1 Bft) 96,52 %
25.05.2023 22:00 14,9 C 13,7 C 10,4 C 72 % 1027,1 hPa 0,0 l/m 0,00 h 0,00 h 0 W/m 6,0 km/h (2 Bft) 97,68 %
25.05.2023 23:00 13,9 C 12,9 C 9,4 C 74 % 1027,6 hPa 0,0 l/m 0,00 h 0,00 h 0 W/m 9,5 km/h (2 Bft) 97,78 %
26.05.2023 00:00 12,8 C 11,9 C 8,5 C 77 % 1028,0 hPa 0,0 l/m 0,00 h 0,00 h 0 W/m 8,8 km/h (2 Bft) 98,22 %
26.05.2023 01:00 11,9 C 10,8 C 7,6 C 80 % 1028,2 hPa 0,0 l/m 0,00 h 0,00 h 0 W/m 7,1 km/h (2 Bft) 94,89 %
26.05.2023 02:00 11,0 C 10,0 C 6,9 C 82 % 1028,4 hPa 0,0 l/m 0,00 h 0,00 h 0 W/m 5,3 km/h (1 Bft) 97,23 %
26.05.2023 03:00 10,2 C 9,1 C 5,9 C 84 % 1028,6 hPa 0,0 l/m 0,00 h 0,00 h 0 W/m 3,8 km/h (1 Bft) 98,72 %
26.05.2023 04:00 9,4 C 8,2 C 5,2 C 86 % 1028,7 hPa 0,0 l/m 0,00 h 0,00 h 0 W/m 3,3 km/h (1 Bft) 95,37 %
26.05.2023 05:00 8,7 C 7,9 C 4,9 C 88 % 1028,8 hPa 0,0 l/m 0,00 h 0,00 h 8 W/m 6,5 km/h (2 Bft) 96,97 %
26.05.2023 06:00 8,9 C 8,5 C 5,2 C 89 % 1028,9 hPa 0,0 l/m 0,00 h 0,00 h 35 W/m 12,2 km/h (2 Bft) 96,51 %
26.05.2023 07:00 9,6 C 9,5 C 5,9 C 87 % 1029,1 hPa 0,0 l/m 0,00 h 0,00 h 93 W/m 15,1 km/h (3 Bft) 98,02 %
26.05.2023 08:00 10,5 C 11,4 C 7,0 C 85 % 1029,6 hPa 0,0 l/m 0,37 h 0,00 h 200 W/m 15,0 km/h (3 Bft) 96,30 %
26.05.2023 09:00 12,9 C 17,5 C 10,5 C 78 % 1029,8 hPa 0,0 l/m 1,00 h 0,00 h 512 W/m 14,2 km/h (3 Bft) 97,15 %
26.05.2023 10:00 14,7 C 17,2 C 13,0 C 71 % 1029,8 hPa 0,0 l/m 1,00 h 0,00 h 671 W/m 13,9 km/h (3 Bft) 94,95 %
26.05.2023 11:00 16,4 C 20,5 C 14,2 C 67 % 1029,8 hPa 0,0 l/m 1,00 h 0,00 h 796 W/m 14,2 km/h (3 Bft) 97,44 %
26.05.2023 12:00 17,7 C 22,8 C 18,0 C 64 % 1029,6 hPa 0,0 l/m 1,00 h 0,00 h 876 W/m 16,5 km/h (3 Bft) 98,78 %
26.05.2023 13:00 19,3 C 25,3 C 20,6 C 60 % 1029,4 hPa 0,0 l/m 1,00 h 0,00 h 904 W/m 15,5 km/h (3 Bft) 97,00 %
26.05.2023 14:00 20,3 C 27,0 C 15,9 C 54 % 1029,2 hPa 0,0 l/m 1,00 h 0,00 h 893 W/m 16,7 km/h (3 Bft) 98,35 %
26.05.2023 15:00 20,8 C 26,1 C 15,9 C 48 % 1028,8 hPa 0,0 l/m 1,00 h 0,00 h 838 W/m 17,0 km/h (3 Bft) 96,29 %
26.05.2023 16:00 21,1 C 25,5 C 16,4 C 44 % 1028,5 hPa 0,0 l/m 1,00 h 0,00 h 726 W/m 17,4 km/h (3 Bft) 97,53 %
26.05.2023 17:00 21,2 C 25,4 C 17,5 C 43 % 1028,3 hPa 0,0 l/m 1,00 h 0,00 h 579 W/m 15,5 km/h (3 Bft) 99,29 %
26.05.2023 18:00 20,6 C 24,4 C 17,1 C 45 % 1028,2 hPa 0,0 l/m 1,00 h 0,00 h 397 W/m 15,0 km/h (3 Bft) 94,64 %
26.05.2023 19:00 19,3 C 20,2 C 14,8 C 51 % 1028,1 hPa 0,0 l/m 0,73 h 0,00 h 189 W/m 14,5 km/h (3 Bft) 99,38 %
26.05.2023 20:00 17,7 C 16,9 C 13,2 C 55 % 1028,2 hPa 0,0 l/m 0,00 h 0,00 h 45 W/m 10,4 km/h (2 Bft) 97,41 %
26.05.2023 21:00 16,1 C 14,8 C 11,4 C 60 % 1028,4 hPa 0,0 l/m 0,00 h 0,00 h 11 W/m 8,6 km/h (2 Bft) 95,53 %
26.05.2023 22:00 14,8 C 13,9 C 10,3 C 65 % 1028,7 hPa 0,0 l/m 0,00 h 0,00 h 0 W/m 6,2 km/h (2 Bft) 98,30 %
26.05.2023 23:00 14,0 C 12,9 C 9,4 C 69 % 1028,8 hPa 0,0 l/m 0,00 h 0,00 h 0 W/m 5,3 km/h (1 Bft) 97,29 %
27.05.2023 00:00 12,8 C 11,9 C 8,5 C 74 % 1028,9 hPa 0,0 l/m 0,00 h 0,00 h 0 W/m 8,8 km/h (2 Bft) 96,77 %
27.05.2023 01:00 11,9 C 10,9 C 7,5 C 77 % 1028,9 hPa 0,0 l/m 0,00 h 0,00 h 0 W/m 5,0 km/h (1 Bft) 96,78 %
27.05.2023 02:00 10,9 C 9,9 C 6,8 C 80 % 1028,8 hPa 0,0 l/m 0,00 h 0,00 h 0 W/m 6,5 km/h (2 Bft) 98,97 %
27.05.2023 03:00 10,1 C 9,2 C 6,0 C 82 % 1028,6 hPa 0,0 l/m 0,00 h 0,00 h 0 W/m 7,4 km/h (2 Bft) 97,31 %
27.05.2023 04:00 9,5 C 8,5 C 5,3 C 85 % 1028,4 hPa 0,0 l/m 0,00 h 0,00 h 0 W/m 7,5 km/h (2 Bft) 96,49 %
27.05.2023 05:00 8,6 C 7,8 C 4,5 C 87 % 1028,2 hPa 0,0 l/m 0,00 h 0,00 h 8 W/m 5,3 km/h (1 Bft) 98,57 %
27.05.2023 06:00 8,5 C 8,0 C 4,7 C 89 % 1028,2 hPa 0,0 l/m 0,00 h 0,00 h 28 W/m 6,0 km/h (2 Bft) 97,68 %
27.05.2023 07:00 9,3 C 9,2 C 5,5 C 89 % 1028,0 hPa 0,0 l/m 0,10 h 0,00 h 76 W/m 9,5 km/h (2 Bft) 96,92 %
27.05.2023 08:00 12,0 C 16,8 C 8,4 C 82 % 1027,8 hPa 0,0 l/m 1,00 h 0,00 h 358 W/m 9,2 km/h (2 Bft) 95,59 %
27.05.2023 09:00 15,7 C 21,5 C 13,3 C 71 % 1027,4 hPa 0,0 l/m 1,00 h 0,00 h 539 W/m 8,9 km/h (2 Bft) 96,99 %
27.05.2023 10:00 17,2 C 19,7 C 15,7 C 66 % 1027,0 hPa 0,0 l/m 1,00 h 0,00 h 691 W/m 8,1 km/h (2 Bft) 94,69 %
27.05.2023 11:00 19,0 C 23,1 C 16,5 C 62 % 1026,3 hPa 0,0 l/m 1,00 h 0,00 h 805 W/m 9,4 km/h (2 Bft) 98,01 %
27.05.2023 12:00 20,9 C 26,5 C 21,3 C 56 % 1025,6 hPa 0,0 l/m 1,00 h 0,00 h 903 W/m 11,3 km/h (2 Bft) 96,74 %
27.05.2023 13:00 22,1 C 28,7 C 24,2 C 52 % 1024,9 hPa 0,0 l/m 1,00 h 0,00 h 936 W/m 12,0 km/h (2 Bft) 99,43 %
27.05.2023 14:00 24,0 C 31,4 C 19,0 C 47 % 1024,0 hPa 0,0 l/m 1,00 h 0,00 h 910 W/m 11,9 km/h (2 Bft) 96,04 %
27.05.2023 15:00 24,8 C 30,6 C 19,3 C 45 % 1023,3 hPa 0,0 l/m 1,00 h 0,00 h 845 W/m 11,1 km/h (2 Bft) 96,64 %
27.05.2023 16:00 24,9 C 30,0 C 19,9 C 45 % 1022,5 hPa 0,0 l/m 1,00 h 0,00 h 735 W/m 10,6 km/h (2 Bft) 98,15 %
27.05.2023 17:00 25,3 C 29,9 C 21,0 C 46 % 1022,0 hPa 0,0 l/m 1,00 h 0,00 h 580 W/m 11,1 km/h (2 Bft) 97,31 %
27.05.2023 18:00 25,0 C 29,9 C 21,0 C 47 % 1021,6 hPa 0,0 l/m 1,00 h 0,00 h 407 W/m 10,0 km/h (2 Bft) 96,55 %
27.05.2023 19:00 23,6 C 25,0 C 18,5 C 50 % 1021,2 hPa 0,0 l/m 0,77 h 0,00 h 198 W/m 7,4 km/h (2 Bft) 99,14 %
27.05.2023 20:00 21,4 C 20,3 C 16,6 C 55 % 1021,2 hPa 0,0 l/m 0,00 h 0,00 h 38 W/m 5,0 km/h (1 Bft) 96,57 %
27.05.2023 21:00 19,6 C 17,8 C 14,5 C 61 % 1021,3 hPa 0,0 l/m 0,00 h 0,00 h 11 W/m 0,6 km/h (0 Bft) 97,94 %
27.05.2023 22:00 17,7 C 15,5 C 12,2 C 68 % 1021,3 hPa 0,0 l/m 0,00 h 0,00 h 0 W/m 0,0 km/h (0 Bft) 97,60 %
27.05.2023 23:00 16,2 C 14,5 C 11,2 C 72 % 1021,1 hPa 0,0 l/m 0,00 h 0,00 h 0 W/m 0,0 km/h (0 Bft) 94,73 %
28.05.2023 00:00 15,4 C 14,1 C 10,9 C 73 % 1020,7 hPa 0,0 l/m 0,00 h 0,00 h 0 W/m 1,0 km/h (0 Bft) 98,92 %
28.05.2023 01:00 14,5 C 12,9 C 9,7 C 77 % 1020,5 hPa 0,0 l/m 0,00 h 0,00 h 0 W/m 0,0 km/h (0 Bft) 96,93 %
28.05.2023 02:00 13,4 C 11,8 C 9,0 C 81 % 1020,2 hPa 0,0 l/m 0,00 h 0,00 h 0 W/m 0,0 km/h (0 Bft) 98,38 %
28.05.2023 03:00 12,6 C 11,6 C 8,3 C 83 % 1020,0 hPa 0,0 l/m 0,00 h 0,00 h 0 W/m 2,8 km/h (1 Bft) 95,61 %
28.05.2023 04:00 11,9 C 10,7 C 7,8 C 85 % 1019,7 hPa 0,0 l/m 0,00 h 0,00 h 0 W/m 2,1 km/h (1 Bft) 97,68 %
28.05.2023 05:00 11,3 C 10,0 C 7,1 C 88 % 1020,0 hPa 0,0 l/m 0,00 h 0,00 h 8 W/m 0,1 km/h (0 Bft) 98,15 %
28.05.2023 06:00 10,9 C 10,5 C 7,4 C 90 % 1020,1 hPa 0,0 l/m 0,00 h 0,00 h 26 W/m 0,3 km/h (0 Bft) 95,92 %
28.05.2023 07:00 11,7 C 12,2 C 8,6 C 91 % 1020,5 hPa 0,0 l/m 0,07 h 0,00 h 65 W/m 1,4 km/h (1 Bft) 95,52 %
28.05.2023 08:00 15,2 C 20,6 C 12,2 C 83 % 1020,5 hPa 0,0 l/m 1,00 h 0,00 h 356 W/m 3,3 km/h (1 Bft) 98,50 %
28.05.2023 09:00 20,1 C 25,2 C 17,5 C 65 % 1020,6 hPa 0,0 l/m 1,00 h 0,00 h 532 W/m 6,0 km/h (2 Bft) 97,86 %
28.05.2023 10:00 22,0 C 24,3 C 20,6 C 58 % 1020,5 hPa 0,0 l/m 1,00 h 0,00 h 717 W/m 8,7 km/h (2 Bft) 98,28 %
28.05.2023 11:00 23,3 C 27,1 C 20,9 C 54 % 1020,0 hPa 0,0 l/m 1,00 h 0,00 h 848 W/m 11,5 km/h (2 Bft) 98,86 %
28.05.2023 12:00 24,6 C 29,4 C 24,2 C 50 % 1019,9 hPa 0,0 l/m 0,93 h 0,00 h 814 W/m 12,7 km/h (3 Bft) 95,42 %
28.05.2023 13:00 25,5 C 31,0 C 26,2 C 47 % 1019,8 hPa 0,0 l/m 1,00 h 0,00 h 892 W/m 12,8 km/h (3 Bft) 99,43 %
28.05.2023 14:00 26,1 C 31,5 C 21,3 C 46 % 1019,6 hPa 0,0 l/m 1,00 h 0,00 h 857 W/m 13,0 km/h (3 Bft) 96,55 %
28.05.2023 15:00 25,5 C 27,9 C 20,9 C 48 % 1019,3 hPa 0,0 l/m 1,00 h 0,00 h 557 W/m 14,7 km/h (3 Bft) 97,45 %
28.05.2023 16:00 24,7 C 26,8 C 20,8 C 50 % 1019,0 hPa 0,0 l/m 1,00 h 0,00 h 515 W/m 13,3 km/h (3 Bft) 98,25 %
28.05.2023 17:00 24,5 C 25,6 C 20,4 C 51 % 1018,8 hPa 0,0 l/m 1,00 h 0,00 h 341 W/m 15,6 km/h (3 Bft) 97,93 %
28.05.2023 18:00 23,4 C 23,7 C 19,2 C 53 % 1018,7 hPa 0,0 l/m 0,27 h 0,00 h 208 W/m 13,3 km/h (3 Bft) 96,86 %
28.05.2023 19:00 22,9 C 23,2 C 18,3 C 55 % 1018,7 hPa 0,0 l/m 0,93 h 0,00 h 182 W/m 13,4 km/h (3 Bft) 97,21 %
28.05.2023 20:00 22,2 C 21,3 C 17,5 C 56 % 1019,0 hPa 0,0 l/m 0,00 h 0,00 h 53 W/m 12,4 km/h (3 Bft) 98,05 %
28.05.2023 21:00 21,1 C 20,0 C 16,2 C 58 % 1019,5 hPa 0,0 l/m 0,10 h 0,00 h 15 W/m 8,7 km/h (2 Bft) 98,15 %
28.05.2023 22:00 20,1 C 19,0 C 15,0 C 61 % 1020,2 hPa 0,0 l/m 0,00 h 0,00 h 0 W/m 7,8 km/h (2 Bft) 95,93 %
28.05.2023 23:00 18,0 C 17,1 C 13,3 C 65 % 1020,9 hPa 0,0 l/m 0,00 h 0,00 h 0 W/m 10,4 km/h (2 Bft) 98,62 %
Min-Datum _ 24.05.23 24.05.23 24.05.23 26.05.23 22.05.23 - - - - 22.05.23 24.05.23
_ Min-Zeit 06:00 04:14 05:24 16:48 05:00 - - - - 00:32 18:38
Minimum _ 6,3 C 5,6 C 2,2 C 41 % 1013,6 hPa - - - - 0,0 km/h (0 Bft) 12,77 %
Max-Datum _ 28.05.23 28.05.23 28.05.23 22.05.23 26.05.23 22.05.23 22.05.23 22.05.23 24.05.23 23.05.23 22.05.23
_ Max-Zeit 14:44 14:24 13:08 07:04 09:08 00:00 18:12 00:00 13:36 05:08 00:08
Maximum _ 26,6 C 33,3 C 28,3 C 97 % 1029,9 hPa 0,0 l/m 0,07 h 0,00 h 1178 W/m 45,1 km/h
N-NW (6 Bft)
100,00 %
Durchschnitt _ 16,1 C 16,9 C 12,3 C 74 % 1022,9 hPa #0,0 l/m #56:34 h #0 min. 344 W/m 9,4 km/h (2 Bft) 96,23 %
© 2023 W. Hausmann